Terminal Aerodrome Forecast
Issued by NWS Newport/Morehead City, NC

Home | Current Version | Previous Version | Text Only | Print | Product List | Glossary Off
Versions: 1 2 3 4 5 6 7 8 9 10 11 12 13 14 15 16 17 18 19 20 21 22

000
FTUS42 KMHX 290531
TAFEWN
TAF
KEWN 290531Z 2906/3006 VRB03KT P6SM SCT006 BKN050
     FM290900 VRB03KT 4SM BR BKN006
     FM291300 03008KT P6SM BKN040=

USA.gov is the U.S. government's official web portal to all federal, state and local government web resources and services.